sensor_id;sensor_type;location;lat;lon;timestamp;P1;durP1;ratioP1;P2;durP2;ratioP2
40048;SDS011;54524;55.740;37.544;2022-12-24T00:01:04;8.2;;;5.9;;
40048;SDS011;54524;55.740;37.544;2022-12-24T00:02:05;8;;;5.8;;
40048;SDS011;54524;55.740;37.544;2022-12-24T00:03:05;7.9;;;5.7;;
40048;SDS011;54524;55.740;37.544;2022-12-24T00:04:05;6.9;;;5.9;;
40048;SDS011;54524;55.740;37.544;2022-12-24T00:05:07;6.8;;;5.8;;
40048;SDS011;54524;55.740;37.544;2022-12-24T00:06:12;6.9;;;5.8;;
40048;SDS011;54524;55.740;37.544;2022-12-24T00:07:13;6.5;;;5.5;;
40048;SDS011;54524;55.740;37.544;2022-12-24T00:08:13;6.6;;;5.5;;
40048;SDS011;54524;55.740;37.544;2022-12-24T00:09:14;6.5;;;5.5;;
40048;SDS011;54524;55.740;37.544;2022-12-24T00:11:04;6.30;;;1.20;;
40048;SDS011;54524;55.740;37.544;2022-12-24T00:12:04;7.5;;;5.6;;
40048;SDS011;54524;55.740;37.544;2022-12-24T00:13:05;7.4;;;5.6;;
40048;SDS011;54524;55.740;37.544;2022-12-24T00:14:06;6.6;;;5;;
40048;SDS011;54524;55.740;37.544;2022-12-24T00:15:06;6.7;;;5.1;;
40048;SDS011;54524;55.740;37.544;2022-12-24T00:16:07;6.7;;;5.1;;
40048;SDS011;54524;55.740;37.544;2022-12-24T00:17:08;8.7;;;5.4;;
40048;SDS011;54524;55.740;37.544;2022-12-24T00:18:09;8.6;;;5.4;;
40048;SDS011;54524;55.740;37.544;2022-12-24T00:19:09;9.4;;;5.4;;
40048;SDS011;54524;55.740;37.544;2022-12-24T00:21:03;8.1;;;5.4;;
40048;SDS011;54524;55.740;37.544;2022-12-24T00:22:05;8;;;5.4;;
40048;SDS011;54524;55.740;37.544;2022-12-24T00:23:06;7.8;;;5.6;;
40048;SDS011;54524;55.740;37.544;2022-12-24T00:24:06;7.9;;;5.6;;
40048;SDS011;54524;55.740;37.544;2022-12-24T00:25:07;8.6;;;5.7;;
40048;SDS011;54524;55.740;37.544;2022-12-24T00:26:08;8.5;;;5.6;;
40048;SDS011;54524;55.740;37.544;2022-12-24T00:27:10;8.5;;;5.6;;
40048;SDS011;54524;55.740;37.544;2022-12-24T00:28:10;8.5;;;5.6;;
40048;SDS011;54524;55.740;37.544;2022-12-24T00:29:11;11.3;;;6;;
40048;SDS011;54524;55.740;37.544;2022-12-24T00:31:07;11.5;;;6.1;;
40048;SDS011;54524;55.740;37.544;2022-12-24T00:32:07;8.2;;;5.9;;
40048;SDS011;54524;55.740;37.544;2022-12-24T00:33:09;8.1;;;5.9;;
40048;SDS011;54524;55.740;37.544;2022-12-24T00:34:10;8;;;5.9;;
40048;SDS011;54524;55.740;37.544;2022-12-24T00:35:10;8.9;;;5.9;;
40048;SDS011;54524;55.740;37.544;2022-12-24T00:36:11;8.8;;;5.9;;
40048;SDS011;54524;55.740;37.544;2022-12-24T00:37:12;8.6;;;5.9;;
40048;SDS011;54524;55.740;37.544;2022-12-24T00:38:13;9.3;;;6.2;;
40048;SDS011;54524;55.740;37.544;2022-12-24T00:39:13;9.6;;;6.3;;
40048;SDS011;54524;55.740;37.544;2022-12-24T00:41:03;9.5;;;6.3;;
40048;SDS011;54524;55.740;37.544;2022-12-24T00:42:04;9.7;;;6.3;;
40048;SDS011;54524;55.740;37.544;2022-12-24T00:43:05;9.4;;;6.3;;
40048;SDS011;54524;55.740;37.544;2022-12-24T00:44:06;9.4;;;6.5;;
40048;SDS011;54524;55.740;37.544;2022-12-24T00:45:10;9.8;;;6.5;;
40048;SDS011;54524;55.740;37.544;2022-12-24T00:46:10;9.9;;;6.5;;
40048;SDS011;54524;55.740;37.544;2022-12-24T00:47:11;11.3;;;7;;
40048;SDS011;54524;55.740;37.544;2022-12-24T00:48:13;11.2;;;6.9;;
40048;SDS011;54524;55.740;37.544;2022-12-24T00:49:13;11.2;;;6.9;;
40048;SDS011;54524;55.740;37.544;2022-12-24T00:51:03;9.7;;;6.8;;
40048;SDS011;54524;55.740;37.544;2022-12-24T00:52:04;9.2;;;6.8;;
40048;SDS011;54524;55.740;37.544;2022-12-24T00:53:04;12;;;7.1;;
40048;SDS011;54524;55.740;37.544;2022-12-24T00:54:05;12.1;;;7.2;;
40048;SDS011;54524;55.740;37.544;2022-12-24T00:55:06;11.7;;;7.2;;
40048;SDS011;54524;55.740;37.544;2022-12-24T00:56:07;10.9;;;6.9;;
40048;SDS011;54524;55.740;37.544;2022-12-24T00:57:08;10.9;;;7;;
40048;SDS011;54524;55.740;37.544;2022-12-24T00:58:09;10.9;;;7.1;;
40048;SDS011;54524;55.740;37.544;2022-12-24T00:59:09;9.7;;;7.1;;
40048;SDS011;54524;55.740;37.544;2022-12-24T01:01:04;9.4;;;6.9;;
40048;SDS011;54524;55.740;37.544;2022-12-24T01:02:04;9.5;;;7;;
40048;SDS011;54524;55.740;37.544;2022-12-24T01:03:05;8.4;;;7.1;;
40048;SDS011;54524;55.740;37.544;2022-12-24T01:04:05;8.5;;;7;;
40048;SDS011;54524;55.740;37.544;2022-12-24T01:06:10;10;;;7.7;;
40048;SDS011;54524;55.740;37.544;2022-12-24T01:07:10;9.9;;;7.6;;
40048;SDS011;54524;55.740;37.544;2022-12-24T01:08:11;9.9;;;7.7;;
40048;SDS011;54524;55.740;37.544;2022-12-24T01:09:12;9.5;;;7.2;;
40048;SDS011;54524;55.740;37.544;2022-12-24T01:11:03;9.7;;;7.3;;
40048;SDS011;54524;55.740;37.544;2022-12-24T01:12:04;13;;;8.4;;
40048;SDS011;54524;55.740;37.544;2022-12-24T01:13:05;12.9;;;8.4;;
40048;SDS011;54524;55.740;37.544;2022-12-24T01:14:05;12.8;;;8.3;;
40048;SDS011;54524;55.740;37.544;2022-12-24T01:15:06;0;;;0;;
40048;SDS011;54524;55.740;37.544;2022-12-24T01:16:12;11.7;;;8.1;;
40048;SDS011;54524;55.740;37.544;2022-12-24T01:17:14;11.7;;;8.1;;
40048;SDS011;54524;55.740;37.544;2022-12-24T01:18:14;10.8;;;7.9;;
40048;SDS011;54524;55.740;37.544;2022-12-24T01:19:15;10.8;;;7.9;;
40048;SDS011;54524;55.740;37.544;2022-12-24T01:21:03;12.2;;;8.3;;
40048;SDS011;54524;55.740;37.544;2022-12-24T01:22:03;12.1;;;8.3;;
40048;SDS011;54524;55.740;37.544;2022-12-24T01:23:04;12.1;;;8.3;;
40048;SDS011;54524;55.740;37.544;2022-12-24T01:24:05;11.5;;;8.3;;
40048;SDS011;54524;55.740;37.544;2022-12-24T01:25:05;12.4;;;8.4;;
40048;SDS011;54524;55.740;37.544;2022-12-24T01:26:06;12.6;;;8.4;;
40048;SDS011;54524;55.740;37.544;2022-12-24T01:27:07;12.4;;;8.6;;
40048;SDS011;54524;55.740;37.544;2022-12-24T01:28:08;12.6;;;8.6;;
40048;SDS011;54524;55.740;37.544;2022-12-24T01:29:08;12.4;;;8.6;;
40048;SDS011;54524;55.740;37.544;2022-12-24T01:31:08;10.3;;;8.1;;
40048;SDS011;54524;55.740;37.544;2022-12-24T01:32:09;10.3;;;8.1;;
40048;SDS011;54524;55.740;37.544;2022-12-24T01:33:09;0;;;0;;
40048;SDS011;54524;55.740;37.544;2022-12-24T01:34:10;12;;;8.1;;
40048;SDS011;54524;55.740;37.544;2022-12-24T01:35:10;12;;;8.1;;
40048;SDS011;54524;55.740;37.544;2022-12-24T01:36:11;12.4;;;8.6;;
40048;SDS011;54524;55.740;37.544;2022-12-24T01:37:13;12.3;;;8.6;;
40048;SDS011;54524;55.740;37.544;2022-12-24T01:38:13;12.3;;;8.6;;
40048;SDS011;54524;55.740;37.544;2022-12-24T01:39:14;12.8;;;8.6;;
40048;SDS011;54524;55.740;37.544;2022-12-24T01:41:02;13.3;;;8.6;;
40048;SDS011;54524;55.740;37.544;2022-12-24T01:44:26;14.1;;;9.1;;
40048;SDS011;54524;55.740;37.544;2022-12-24T01:45:38;11.6;;;8.2;;
40048;SDS011;54524;55.740;37.544;2022-12-24T01:46:39;11.6;;;8.3;;
40048;SDS011;54524;55.740;37.544;2022-12-24T01:47:39;11.3;;;8.2;;
40048;SDS011;54524;55.740;37.544;2022-12-24T01:48:41;20;;;14.1;;
40048;SDS011;54524;55.740;37.544;2022-12-24T01:49:44;20.1;;;14;;
40048;SDS011;54524;55.740;37.544;2022-12-24T01:51:04;20;;;14.1;;
40048;SDS011;54524;55.740;37.544;2022-12-24T01:52:06;20.6;;;12.5;;
40048;SDS011;54524;55.740;37.544;2022-12-24T01:53:08;20;;;12.3;;
40048;SDS011;54524;55.740;37.544;2022-12-24T01:54:10;19.7;;;12.2;;
40048;SDS011;54524;55.740;37.544;2022-12-24T01:55:12;14.6;;;9.3;;
40048;SDS011;54524;55.740;37.544;2022-12-24T01:56:14;14.3;;;9.2;;
40048;SDS011;54524;55.740;37.544;2022-12-24T01:57:16;14.2;;;9.2;;
40048;SDS011;54524;55.740;37.544;2022-12-24T01:58:18;12.7;;;9.1;;
40048;SDS011;54524;55.740;37.544;2022-12-24T01:59:19;12.7;;;9.1;;
40048;SDS011;54524;55.740;37.544;2022-12-24T02:01:03;13.5;;;8.5;;
40048;SDS011;54524;55.740;37.544;2022-12-24T02:02:04;13.1;;;8.6;;
40048;SDS011;54524;55.740;37.544;2022-12-24T02:03:04;13;;;8.6;;
40048;SDS011;54524;55.740;37.544;2022-12-24T02:04:08;12.1;;;8.5;;
40048;SDS011;54524;55.740;37.544;2022-12-24T02:05:11;12.1;;;8.6;;
40048;SDS011;54524;55.740;37.544;2022-12-24T02:06:14;12.3;;;8.6;;
40048;SDS011;54524;55.740;37.544;2022-12-24T02:07:17;12.1;;;8.4;;
40048;SDS011;54524;55.740;37.544;2022-12-24T02:08:18;12.1;;;8.3;;
40048;SDS011;54524;55.740;37.544;2022-12-24T02:09:19;12.1;;;8.3;;
40048;SDS011;54524;55.740;37.544;2022-12-24T02:11:04;10.9;;;8.2;;
40048;SDS011;54524;55.740;37.544;2022-12-24T02:12:08;11;;;8.2;;
40048;SDS011;54524;55.740;37.544;2022-12-24T02:13:08;11.1;;;8.1;;
40048;SDS011;54524;55.740;37.544;2022-12-24T02:14:09;11.2;;;8.1;;
40048;SDS011;54524;55.740;37.544;2022-12-24T02:15:11;11.1;;;8.1;;
40048;SDS011;54524;55.740;37.544;2022-12-24T02:16:15;11.5;;;8.8;;
40048;SDS011;54524;55.740;37.544;2022-12-24T02:17:19;11.7;;;8.8;;
40048;SDS011;54524;55.740;37.544;2022-12-24T02:18:24;11.9;;;8.7;;
40048;SDS011;54524;55.740;37.544;2022-12-24T02:19:33;12.8;;;8.7;;
40048;SDS011;54524;55.740;37.544;2022-12-24T02:21:13;12.8;;;8.6;;
40048;SDS011;54524;55.740;37.544;2022-12-24T02:22:20;12.7;;;8.9;;
40048;SDS011;54524;55.740;37.544;2022-12-24T02:23:43;13.6;;;9;;
40048;SDS011;54524;55.740;37.544;2022-12-24T02:24:56;14.2;;;9;;
40048;SDS011;54524;55.740;37.544;2022-12-24T02:26:05;13.1;;;8.7;;
40048;SDS011;54524;55.740;37.544;2022-12-24T02:27:13;13.2;;;8.7;;
40048;SDS011;54524;55.740;37.544;2022-12-24T02:28:19;0;;;0;;
40048;SDS011;54524;55.740;37.544;2022-12-24T02:29:32;12.4;;;9;;
40048;SDS011;54524;55.740;37.544;2022-12-24T02:31:03;12.2;;;9;;
40048;SDS011;54524;55.740;37.544;2022-12-24T02:32:07;13.4;;;9.6;;
40048;SDS011;54524;55.740;37.544;2022-12-24T02:33:13;13.4;;;9.6;;
40048;SDS011;54524;55.740;37.544;2022-12-24T02:34:17;13.4;;;9.7;;
40048;SDS011;54524;55.740;37.544;2022-12-24T02:35:19;11.4;;;8.6;;
40048;SDS011;54524;55.740;37.544;2022-12-24T02:36:22;11.7;;;8.7;;
40048;SDS011;54524;55.740;37.544;2022-12-24T02:37:25;11.7;;;8.8;;
40048;SDS011;54524;55.740;37.544;2022-12-24T02:38:28;12.3;;;8.6;;
40048;SDS011;54524;55.740;37.544;2022-12-24T02:39:32;12.8;;;8.7;;
40048;SDS011;54524;55.740;37.544;2022-12-24T02:41:04;13.5;;;9.2;;
40048;SDS011;54524;55.740;37.544;2022-12-24T02:42:07;13.6;;;9.1;;
40048;SDS011;54524;55.740;37.544;2022-12-24T02:43:09;13.7;;;9.2;;
40048;SDS011;54524;55.740;37.544;2022-12-24T02:44:10;12.4;;;9.2;;
40048;SDS011;54524;55.740;37.544;2022-12-24T02:45:12;12.4;;;9.2;;
40048;SDS011;54524;55.740;37.544;2022-12-24T02:46:15;12.1;;;9.2;;
40048;SDS011;54524;55.740;37.544;2022-12-24T02:47:17;11.9;;;9;;
40048;SDS011;54524;55.740;37.544;2022-12-24T02:48:19;12;;;9;;
40048;SDS011;54524;55.740;37.544;2022-12-24T02:49:21;11.9;;;8.9;;
40048;SDS011;54524;55.740;37.544;2022-12-24T02:51:03;11.8;;;8.3;;
40048;SDS011;54524;55.740;37.544;2022-12-24T02:52:04;12;;;8.4;;
40048;SDS011;54524;55.740;37.544;2022-12-24T02:53:05;11.8;;;8.6;;
40048;SDS011;54524;55.740;37.544;2022-12-24T02:54:05;11.8;;;8.7;;
40048;SDS011;54524;55.740;37.544;2022-12-24T02:55:07;11.8;;;8.7;;
40048;SDS011;54524;55.740;37.544;2022-12-24T02:56:44;12.2;;;9.1;;
40048;SDS011;54524;55.740;37.544;2022-12-24T02:57:55;12.1;;;9.1;;
40048;SDS011;54524;55.740;37.544;2022-12-24T02:59:03;13.1;;;9;;
40048;SDS011;54524;55.740;37.544;2022-12-24T03:01:05;13.3;;;9.1;;
40048;SDS011;54524;55.740;37.544;2022-12-24T03:02:24;11.6;;;8.6;;
40048;SDS011;54524;55.740;37.544;2022-12-24T03:03:31;11.9;;;8.7;;
40048;SDS011;54524;55.740;37.544;2022-12-24T03:04:35;11.7;;;8.6;;
40048;SDS011;54524;55.740;37.544;2022-12-24T03:05:41;13.4;;;9;;
40048;SDS011;54524;55.740;37.544;2022-12-24T03:06:46;13.6;;;9.1;;
40048;SDS011;54524;55.740;37.544;2022-12-24T03:07:54;13.5;;;9.1;;
40048;SDS011;54524;55.740;37.544;2022-12-24T03:08:57;12.2;;;9.1;;
40048;SDS011;54524;55.740;37.544;2022-12-24T03:10:02;12.1;;;9.1;;
40048;SDS011;54524;55.740;37.544;2022-12-24T03:11:04;13.2;;;9.2;;
40048;SDS011;54524;55.740;37.544;2022-12-24T03:12:08;13;;;9.3;;
40048;SDS011;54524;55.740;37.544;2022-12-24T03:13:12;12.8;;;9.2;;
40048;SDS011;54524;55.740;37.544;2022-12-24T03:14:13;15.2;;;10.1;;
40048;SDS011;54524;55.740;37.544;2022-12-24T03:15:15;15.1;;;10.1;;
40048;SDS011;54524;55.740;37.544;2022-12-24T03:16:17;15.5;;;10.1;;
40048;SDS011;54524;55.740;37.544;2022-12-24T03:17:21;16.4;;;9.8;;
40048;SDS011;54524;55.740;37.544;2022-12-24T03:18:22;16.5;;;9.8;;
40048;SDS011;54524;55.740;37.544;2022-12-24T03:19:23;16.9;;;9.8;;
40048;SDS011;54524;55.740;37.544;2022-12-24T03:21:05;13.9;;;9.8;;
40048;SDS011;54524;55.740;37.544;2022-12-24T03:22:08;13.8;;;9.7;;
40048;SDS011;54524;55.740;37.544;2022-12-24T03:23:09;13.9;;;9.7;;
40048;SDS011;54524;55.740;37.544;2022-12-24T03:24:09;15.4;;;10.4;;
40048;SDS011;54524;55.740;37.544;2022-12-24T03:25:10;15.3;;;10.3;;
40048;SDS011;54524;55.740;37.544;2022-12-24T03:26:11;15.5;;;10.2;;
40048;SDS011;54524;55.740;37.544;2022-12-24T03:27:13;12.7;;;9.5;;
40048;SDS011;54524;55.740;37.544;2022-12-24T03:28:15;12.7;;;9.6;;
40048;SDS011;54524;55.740;37.544;2022-12-24T03:29:17;12.5;;;9.6;;
40048;SDS011;54524;55.740;37.544;2022-12-24T03:31:04;19.9;;;12.6;;
40048;SDS011;54524;55.740;37.544;2022-12-24T03:32:05;19.7;;;12.6;;
40048;SDS011;54524;55.740;37.544;2022-12-24T03:33:05;19.2;;;11.7;;
40048;SDS011;54524;55.740;37.544;2022-12-24T03:34:06;19.4;;;11.8;;
40048;SDS011;54524;55.740;37.544;2022-12-24T03:35:07;19.1;;;11.6;;
40048;SDS011;54524;55.740;37.544;2022-12-24T03:36:08;18.3;;;12;;
40048;SDS011;54524;55.740;37.544;2022-12-24T03:37:09;18.4;;;12.1;;
40048;SDS011;54524;55.740;37.544;2022-12-24T03:38:10;18.4;;;12.1;;
40048;SDS011;54524;55.740;37.544;2022-12-24T03:39:10;19;;;12.8;;
40048;SDS011;54524;55.740;37.544;2022-12-24T03:41:02;18.5;;;12.6;;
40048;SDS011;54524;55.740;37.544;2022-12-24T03:42:03;15.2;;;11;;
40048;SDS011;54524;55.740;37.544;2022-12-24T03:43:03;15.1;;;11;;
40048;SDS011;54524;55.740;37.544;2022-12-24T03:44:04;15.1;;;11;;
40048;SDS011;54524;55.740;37.544;2022-12-24T03:45:05;20.1;;;13.4;;
40048;SDS011;54524;55.740;37.544;2022-12-24T03:46:05;20.2;;;13.4;;
40048;SDS011;54524;55.740;37.544;2022-12-24T03:47:07;20;;;13.2;;
40048;SDS011;54524;55.740;37.544;2022-12-24T03:48:07;24.4;;;15.7;;
40048;SDS011;54524;55.740;37.544;2022-12-24T03:49:08;24.3;;;15.7;;
40048;SDS011;54524;55.740;37.544;2022-12-24T03:51:03;26.8;;;16.4;;
40048;SDS011;54524;55.740;37.544;2022-12-24T03:52:04;26.9;;;16.5;;
40048;SDS011;54524;55.740;37.544;2022-12-24T03:53:04;27.1;;;16.5;;
40048;SDS011;54524;55.740;37.544;2022-12-24T03:54:05;27.1;;;16.5;;
40048;SDS011;54524;55.740;37.544;2022-12-24T03:55:06;21.1;;;14.4;;
40048;SDS011;54524;55.740;37.544;2022-12-24T03:56:06;21.2;;;14.5;;
40048;SDS011;54524;55.740;37.544;2022-12-24T03:57:07;21.1;;;14.5;;
40048;SDS011;54524;55.740;37.544;2022-12-24T03:58:08;24.4;;;15.9;;
40048;SDS011;54524;55.740;37.544;2022-12-24T03:59:08;25;;;16.1;;
40048;SDS011;54524;55.740;37.544;2022-12-24T04:01:03;22.7;;;15.4;;
40048;SDS011;54524;55.740;37.544;2022-12-24T04:02:04;22.1;;;15.5;;
40048;SDS011;54524;55.740;37.544;2022-12-24T04:03:04;21.8;;;15.5;;
40048;SDS011;54524;55.740;37.544;2022-12-24T04:04:05;20.8;;;13.7;;
40048;SDS011;54524;55.740;37.544;2022-12-24T04:05:06;21.5;;;13.8;;
40048;SDS011;54524;55.740;37.544;2022-12-24T04:06:07;21.7;;;13.6;;
40048;SDS011;54524;55.740;37.544;2022-12-24T04:07:08;17;;;12;;
40048;SDS011;54524;55.740;37.544;2022-12-24T04:08:09;16.8;;;12;;
40048;SDS011;54524;55.740;37.544;2022-12-24T04:09:09;16.7;;;11.9;;
40048;SDS011;54524;55.740;37.544;2022-12-24T04:11:03;13.5;;;10.9;;
40048;SDS011;54524;55.740;37.544;2022-12-24T04:12:04;13.5;;;10.9;;
40048;SDS011;54524;55.740;37.544;2022-12-24T04:13:04;0;;;0;;
40048;SDS011;54524;55.740;37.544;2022-12-24T04:14:05;15.2;;;11.5;;
40048;SDS011;54524;55.740;37.544;2022-12-24T04:15:06;15.2;;;11.5;;
40048;SDS011;54524;55.740;37.544;2022-12-24T04:16:07;16.6;;;11;;
40048;SDS011;54524;55.740;37.544;2022-12-24T04:17:08;16.3;;;11;;
40048;SDS011;54524;55.740;37.544;2022-12-24T04:18:09;16.4;;;11.1;;
40048;SDS011;54524;55.740;37.544;2022-12-24T04:19:10;17;;;12;;
40048;SDS011;54524;55.740;37.544;2022-12-24T04:21:03;16.8;;;12;;
40048;SDS011;54524;55.740;37.544;2022-12-24T04:22:04;15.8;;;11.4;;
40048;SDS011;54524;55.740;37.544;2022-12-24T04:23:04;15.8;;;11.4;;
40048;SDS011;54524;55.740;37.544;2022-12-24T04:24:05;15.8;;;11.4;;
40048;SDS011;54524;55.740;37.544;2022-12-24T04:25:06;16.5;;;11.5;;
40048;SDS011;54524;55.740;37.544;2022-12-24T04:26:08;16.5;;;11.5;;
40048;SDS011;54524;55.740;37.544;2022-12-24T04:27:09;15.9;;;11.4;;
40048;SDS011;54524;55.740;37.544;2022-12-24T04:28:09;15.5;;;11;;
40048;SDS011;54524;55.740;37.544;2022-12-24T04:29:10;15.8;;;11.1;;
40048;SDS011;54524;55.740;37.544;2022-12-24T04:31:04;18;;;11.3;;
40048;SDS011;54524;55.740;37.544;2022-12-24T04:32:05;18.1;;;11.3;;
40048;SDS011;54524;55.740;37.544;2022-12-24T04:33:06;18.1;;;11.3;;
40048;SDS011;54524;55.740;37.544;2022-12-24T04:34:06;16.8;;;11.9;;
40048;SDS011;54524;55.740;37.544;2022-12-24T04:35:07;16.6;;;11.8;;
40048;SDS011;54524;55.740;37.544;2022-12-24T04:36:09;16.6;;;11.8;;
40048;SDS011;54524;55.740;37.544;2022-12-24T04:37:11;16.1;;;11.2;;
40048;SDS011;54524;55.740;37.544;2022-12-24T04:38:12;16.3;;;11.3;;
40048;SDS011;54524;55.740;37.544;2022-12-24T04:39:12;16.5;;;11.4;;
40048;SDS011;54524;55.740;37.544;2022-12-24T04:41:03;15.9;;;11.4;;
40048;SDS011;54524;55.740;37.544;2022-12-24T04:42:04;15.7;;;11.3;;
40048;SDS011;54524;55.740;37.544;2022-12-24T04:43:05;14.7;;;10.5;;
40048;SDS011;54524;55.740;37.544;2022-12-24T04:44:05;14.7;;;10.5;;
40048;SDS011;54524;55.740;37.544;2022-12-24T04:45:06;14.6;;;10.6;;
40048;SDS011;54524;55.740;37.544;2022-12-24T04:46:08;16.8;;;11;;
40048;SDS011;54524;55.740;37.544;2022-12-24T04:47:09;16.8;;;10.9;;
40048;SDS011;54524;55.740;37.544;2022-12-24T04:48:10;17.3;;;11;;
40048;SDS011;54524;55.740;37.544;2022-12-24T04:49:10;14.6;;;10.4;;
40048;SDS011;54524;55.740;37.544;2022-12-24T04:51:04;6.30;;;1.20;;
40048;SDS011;54524;55.740;37.544;2022-12-24T04:52:05;14.7;;;10.4;;
40048;SDS011;54524;55.740;37.544;2022-12-24T04:53:05;17.2;;;11.2;;
40048;SDS011;54524;55.740;37.544;2022-12-24T04:54:06;17.2;;;11.2;;
40048;SDS011;54524;55.740;37.544;2022-12-24T04:55:06;17.4;;;11.2;;
40048;SDS011;54524;55.740;37.544;2022-12-24T04:56:08;15.5;;;11.1;;
40048;SDS011;54524;55.740;37.544;2022-12-24T04:57:10;15.7;;;10.9;;
40048;SDS011;54524;55.740;37.544;2022-12-24T04:58:11;15.9;;;10.9;;
40048;SDS011;54524;55.740;37.544;2022-12-24T04:59:11;14.2;;;10.9;;
40048;SDS011;54524;55.740;37.544;2022-12-24T05:01:03;14.4;;;10.9;;
40048;SDS011;54524;55.740;37.544;2022-12-24T05:02:04;16.1;;;11.3;;
40048;SDS011;54524;55.740;37.544;2022-12-24T05:03:04;16.3;;;11.4;;
40048;SDS011;54524;55.740;37.544;2022-12-24T05:04:05;16.3;;;11.4;;
40048;SDS011;54524;55.740;37.544;2022-12-24T05:05:06;16.5;;;11.4;;
40048;SDS011;54524;55.740;37.544;2022-12-24T05:06:07;16.1;;;11.5;;
40048;SDS011;54524;55.740;37.544;2022-12-24T05:07:09;15.9;;;11.4;;
40048;SDS011;54524;55.740;37.544;2022-12-24T05:08:09;18.2;;;11.3;;
40048;SDS011;54524;55.740;37.544;2022-12-24T05:09:10;18.1;;;11.3;;
40048;SDS011;54524;55.740;37.544;2022-12-24T05:11:02;17.5;;;11.9;;
40048;SDS011;54524;55.740;37.544;2022-12-24T05:12:03;17.4;;;11.9;;
40048;SDS011;54524;55.740;37.544;2022-12-24T05:13:03;17;;;11.8;;
40048;SDS011;54524;55.740;37.544;2022-12-24T05:14:04;16.4;;;11.9;;
40048;SDS011;54524;55.740;37.544;2022-12-24T05:15:05;16.3;;;11.9;;
40048;SDS011;54524;55.740;37.544;2022-12-24T05:16:05;16.2;;;11.8;;
40048;SDS011;54524;55.740;37.544;2022-12-24T05:17:06;0;;;0;;
40048;SDS011;54524;55.740;37.544;2022-12-24T05:18:07;18.3;;;12.7;;
40048;SDS011;54524;55.740;37.544;2022-12-24T05:19:08;18.4;;;12.7;;
40048;SDS011;54524;55.740;37.544;2022-12-24T05:21:06;20;;;13.6;;
40048;SDS011;54524;55.740;37.544;2022-12-24T05:22:06;19.6;;;13.5;;
40048;SDS011;54524;55.740;37.544;2022-12-24T05:25:14;18.9;;;13;;
40048;SDS011;54524;55.740;37.544;2022-12-24T05:28:22;18.7;;;13;;
40048;SDS011;54524;55.740;37.544;2022-12-24T05:29:23;17.9;;;13.1;;
40048;SDS011;54524;55.740;37.544;2022-12-24T05:31:03;17.7;;;12.8;;
40048;SDS011;54524;55.740;37.544;2022-12-24T05:32:04;19;;;12.5;;
40048;SDS011;54524;55.740;37.544;2022-12-24T05:33:04;19.4;;;12.6;;
40048;SDS011;54524;55.740;37.544;2022-12-24T05:34:05;19.2;;;12.6;;
40048;SDS011;54524;55.740;37.544;2022-12-24T05:35:06;19.3;;;13;;
40048;SDS011;54524;55.740;37.544;2022-12-24T05:36:07;19.2;;;12.9;;
40048;SDS011;54524;55.740;37.544;2022-12-24T05:37:08;19.1;;;12.9;;
40048;SDS011;54524;55.740;37.544;2022-12-24T05:38:08;19.3;;;12.6;;
40048;SDS011;54524;55.740;37.544;2022-12-24T05:39:09;19.3;;;12.6;;
40048;SDS011;54524;55.740;37.544;2022-12-24T05:41:03;20.9;;;14.3;;
40048;SDS011;54524;55.740;37.544;2022-12-24T05:42:04;20.9;;;14.3;;
40048;SDS011;54524;55.740;37.544;2022-12-24T05:43:04;20.9;;;14.2;;
40048;SDS011;54524;55.740;37.544;2022-12-24T05:44:05;21.2;;;14.3;;
40048;SDS011;54524;55.740;37.544;2022-12-24T05:45:06;19.3;;;13.2;;
40048;SDS011;54524;55.740;37.544;2022-12-24T05:46:07;19;;;13.2;;
40048;SDS011;54524;55.740;37.544;2022-12-24T05:47:08;18.6;;;13.1;;
40048;SDS011;54524;55.740;37.544;2022-12-24T05:48:09;22.4;;;14.8;;
40048;SDS011;54524;55.740;37.544;2022-12-24T05:49:10;22.4;;;14.8;;
40048;SDS011;54524;55.740;37.544;2022-12-24T05:51:03;0;;;0;;
40048;SDS011;54524;55.740;37.544;2022-12-24T05:52:05;23.1;;;15.9;;
40048;SDS011;54524;55.740;37.544;2022-12-24T05:53:05;21.9;;;15.8;;
40048;SDS011;54524;55.740;37.544;2022-12-24T05:54:06;19.1;;;13.5;;
40048;SDS011;54524;55.740;37.544;2022-12-24T05:55:07;19;;;13.4;;
40048;SDS011;54524;55.740;37.544;2022-12-24T05:56:09;19.1;;;13.4;;
40048;SDS011;54524;55.740;37.544;2022-12-24T05:57:10;0;;;0;;
40048;SDS011;54524;55.740;37.544;2022-12-24T05:58:10;21.9;;;15.6;;
40048;SDS011;54524;55.740;37.544;2022-12-24T05:59:11;22.3;;;15.8;;
40048;SDS011;54524;55.740;37.544;2022-12-24T06:01:05;23.4;;;16.3;;
40048;SDS011;54524;55.740;37.544;2022-12-24T06:02:05;23.5;;;16.3;;
40048;SDS011;54524;55.740;37.544;2022-12-24T06:03:06;19.7;;;13.9;;
40048;SDS011;54524;55.740;37.544;2022-12-24T06:04:06;19.5;;;13.8;;
40048;SDS011;54524;55.740;37.544;2022-12-24T06:05:07;19.5;;;13.8;;
40048;SDS011;54524;55.740;37.544;2022-12-24T06:06:09;16.7;;;12.9;;
40048;SDS011;54524;55.740;37.544;2022-12-24T06:07:11;16.7;;;12.9;;
40048;SDS011;54524;55.740;37.544;2022-12-24T06:08:11;17;;;12.8;;
40048;SDS011;54524;55.740;37.544;2022-12-24T06:09:11;16.1;;;11.2;;
40048;SDS011;54524;55.740;37.544;2022-12-24T06:11:04;16;;;11.3;;
40048;SDS011;54524;55.740;37.544;2022-12-24T06:12:05;15.3;;;10.7;;
40048;SDS011;54524;55.740;37.544;2022-12-24T06:13:05;15.5;;;10.8;;
40048;SDS011;54524;55.740;37.544;2022-12-24T06:14:06;15.4;;;10.8;;
40048;SDS011;54524;55.740;37.544;2022-12-24T06:15:07;15.9;;;11.9;;
40048;SDS011;54524;55.740;37.544;2022-12-24T06:16:08;15.8;;;11.8;;
40048;SDS011;54524;55.740;37.544;2022-12-24T06:17:09;15.8;;;11.7;;
40048;SDS011;54524;55.740;37.544;2022-12-24T06:18:10;14.6;;;10.3;;
40048;SDS011;54524;55.740;37.544;2022-12-24T06:19:10;14.8;;;10.4;;
40048;SDS011;54524;55.740;37.544;2022-12-24T06:21:04;16;;;11.2;;
40048;SDS011;54524;55.740;37.544;2022-12-24T06:22:04;16;;;11.2;;
40048;SDS011;54524;55.740;37.544;2022-12-24T06:23:05;16.1;;;11.2;;
40048;SDS011;54524;55.740;37.544;2022-12-24T06:24:06;12.4;;;9.5;;
40048;SDS011;54524;55.740;37.544;2022-12-24T06:25:06;12.5;;;9.6;;
40048;SDS011;54524;55.740;37.544;2022-12-24T06:26:08;12.5;;;9.6;;
40048;SDS011;54524;55.740;37.544;2022-12-24T06:27:09;12.5;;;9.6;;
40048;SDS011;54524;55.740;37.544;2022-12-24T06:28:09;12.4;;;10;;
40048;SDS011;54524;55.740;37.544;2022-12-24T06:29:10;12.4;;;10;;
40048;SDS011;54524;55.740;37.544;2022-12-24T06:31:04;12.3;;;9.3;;
40048;SDS011;54524;55.740;37.544;2022-12-24T06:32:05;12.4;;;9.3;;
40048;SDS011;54524;55.740;37.544;2022-12-24T06:33:05;12.5;;;9.4;;
40048;SDS011;54524;55.740;37.544;2022-12-24T06:34:06;14.4;;;9.9;;
40048;SDS011;54524;55.740;37.544;2022-12-24T06:35:06;14.5;;;10;;
40048;SDS011;54524;55.740;37.544;2022-12-24T06:36:07;14.6;;;10;;
40048;SDS011;54524;55.740;37.544;2022-12-24T06:37:08;13;;;8.8;;
40048;SDS011;54524;55.740;37.544;2022-12-24T06:38:17;12.9;;;8.8;;
40048;SDS011;54524;55.740;37.544;2022-12-24T06:39:17;12.9;;;8.8;;
40048;SDS011;54524;55.740;37.544;2022-12-24T06:41:04;11.8;;;8.3;;
40048;SDS011;54524;55.740;37.544;2022-12-24T06:42:04;11.8;;;8.3;;
40048;SDS011;54524;55.740;37.544;2022-12-24T06:43:05;13.8;;;8.4;;
40048;SDS011;54524;55.740;37.544;2022-12-24T06:44:05;14.1;;;8.4;;
40048;SDS011;54524;55.740;37.544;2022-12-24T06:45:06;13.8;;;8.4;;
40048;SDS011;54524;55.740;37.544;2022-12-24T06:46:07;14.4;;;9.1;;
40048;SDS011;54524;55.740;37.544;2022-12-24T06:47:08;14.6;;;9.1;;
40048;SDS011;54524;55.740;37.544;2022-12-24T06:48:08;14.7;;;9.1;;
40048;SDS011;54524;55.740;37.544;2022-12-24T06:49:09;13.1;;;9;;
40048;SDS011;54524;55.740;37.544;2022-12-24T06:51:03;13;;;9;;
40048;SDS011;54524;55.740;37.544;2022-12-24T06:52:04;14.1;;;9.5;;
40048;SDS011;54524;55.740;37.544;2022-12-24T06:53:04;14;;;9.5;;